createdAt,value
2022-12-08T00:01:27.649Z,77150.41
2022-12-08T00:03:55.484Z,77154.44
2022-12-08T00:06:46.016Z,77152.41
2022-12-08T00:09:39.374Z,77152.41
2022-12-08T00:12:08.440Z,77148.38
2022-12-08T00:14:38.701Z,77168.63
2022-12-08T00:17:07.680Z,77172.69
2022-12-08T00:19:34.519Z,77176.75
2022-12-08T00:22:03.304Z,77182.84
2022-12-08T00:24:32.923Z,77192.97
2022-12-08T00:27:00.160Z,77201.06
2022-12-08T00:29:27.249Z,77209.19
2022-12-08T00:31:54.626Z,77215.28
2022-12-08T00:34:21.570Z,77221.34
2022-12-08T00:36:48.703Z,77221.34
2022-12-08T00:39:17.217Z,77229.47
2022-12-08T00:42:03.607Z,77229.47
2022-12-08T00:44:30.451Z,77221.34
2022-12-08T00:46:57.557Z,77229.47
2022-12-08T00:49:24.716Z,77231.50
2022-12-08T00:51:52.376Z,77231.50
2022-12-08T00:54:19.661Z,77225.41
2022-12-08T00:56:46.793Z,77249.75
2022-12-08T00:59:13.816Z,77265.97
2022-12-08T01:01:41.488Z,77274.06
2022-12-08T01:04:11.359Z,77292.31
2022-12-08T01:06:39.497Z,77288.25
2022-12-08T01:09:07.821Z,77294.34
2022-12-08T01:11:36.633Z,77302.44
2022-12-08T01:14:03.796Z,77310.56
2022-12-08T01:16:33.712Z,77324.75
2022-12-08T01:19:02.011Z,77326.78
2022-12-08T01:21:29.480Z,77359.22
2022-12-08T01:23:58.001Z,77324.75
2022-12-08T01:26:25.068Z,77320.69
2022-12-08T01:29:11.794Z,77314.63
2022-12-08T01:31:39.406Z,77310.56
2022-12-08T01:34:07.215Z,77314.63
2022-12-08T01:36:38.530Z,77306.50
2022-12-08T01:39:14.242Z,77306.50
2022-12-08T01:41:43.712Z,77322.72
2022-12-08T01:44:13.325Z,77314.63
2022-12-08T01:46:42.620Z,77318.66
2022-12-08T01:49:18.506Z,77304.47
2022-12-08T01:51:54.437Z,77306.50
2022-12-08T01:54:26.288Z,77306.50
2022-12-08T01:57:08.737Z,77298.41
2022-12-08T01:59:42.065Z,77294.34
2022-12-08T02:02:11.556Z,77292.31
2022-12-08T02:04:38.907Z,77288.25
2022-12-08T02:07:08.600Z,77282.19
2022-12-08T02:09:38.483Z,77290.28
2022-12-08T02:12:05.871Z,77290.28
2022-12-08T02:14:34.289Z,77290.28
2022-12-08T02:17:07.702Z,77302.44
2022-12-08T02:19:59.569Z,77302.44
2022-12-08T02:22:32.337Z,77298.41
2022-12-08T02:25:12.370Z,77302.44
2022-12-08T02:28:11.621Z,77300.44
2022-12-08T02:31:01.320Z,77306.50
2022-12-08T02:33:40.239Z,77306.50
2022-12-08T02:36:24.388Z,77314.63
2022-12-08T02:39:11.431Z,77318.66
2022-12-08T02:42:01.399Z,77326.78
2022-12-08T02:44:53.004Z,77314.63
2022-12-08T02:47:23.755Z,77322.72
2022-12-08T02:49:50.884Z,77318.66
2022-12-08T02:52:17.679Z,77322.72
2022-12-08T02:54:50.689Z,77322.72
2022-12-08T02:57:38.043Z,77328.81
2022-12-08T03:00:17.851Z,77322.72
2022-12-08T03:02:47.453Z,77322.72
2022-12-08T03:05:57.576Z,77334.91
2022-12-08T03:08:50.437Z,77330.84
2022-12-08T03:11:42.142Z,77334.91
2022-12-08T03:14:12.138Z,77334.91
2022-12-08T03:16:43.617Z,77351.13
2022-12-08T03:19:18.618Z,77357.19
2022-12-08T03:21:51.735Z,77365.31
2022-12-08T03:24:22.008Z,77375.44
2022-12-08T03:26:59.675Z,77383.56
2022-12-08T03:29:26.668Z,77393.69
2022-12-08T03:31:59.978Z,77387.59
2022-12-08T03:34:29.861Z,77375.44
2022-12-08T03:36:57.283Z,77383.56
2022-12-08T03:39:24.454Z,77375.44
2022-12-08T03:41:51.607Z,77379.50
2022-12-08T03:44:18.416Z,77383.56
2022-12-08T03:46:45.979Z,77391.66
2022-12-08T03:49:12.786Z,77391.66
2022-12-08T03:51:39.993Z,77399.78
2022-12-08T03:54:06.830Z,77407.88
2022-12-08T03:56:37.113Z,77411.94
2022-12-08T03:59:05.546Z,77416.00
2022-12-08T04:01:32.719Z,77420.06
2022-12-08T04:03:59.723Z,77424.09
2022-12-08T04:06:26.892Z,77428.16
2022-12-08T04:08:53.822Z,77432.22
2022-12-08T04:11:21.243Z,77430.19
2022-12-08T04:13:48.479Z,77428.16
2022-12-08T04:16:21.413Z,77428.16
2022-12-08T04:18:48.889Z,77428.16
2022-12-08T04:21:16.547Z,77428.16
2022-12-08T04:23:43.729Z,77428.16
2022-12-08T04:26:10.911Z,77436.28
2022-12-08T04:28:38.139Z,77420.06
2022-12-08T04:31:05.425Z,77413.97
2022-12-08T04:33:32.467Z,77411.94
2022-12-08T04:35:59.715Z,77403.84
2022-12-08T04:38:26.557Z,77397.75
2022-12-08T04:40:53.794Z,77389.63
2022-12-08T04:43:20.745Z,77424.09
2022-12-08T04:45:48.121Z,77379.50
2022-12-08T04:48:15.347Z,77379.50
2022-12-08T04:50:44.878Z,77379.50
2022-12-08T04:53:12.653Z,77379.50
2022-12-08T04:55:41.323Z,77379.50
2022-12-08T04:58:08.248Z,77367.34
2022-12-08T05:00:35.337Z,77377.47
2022-12-08T05:03:02.244Z,77391.66
2022-12-08T05:05:29.357Z,77391.66
2022-12-08T05:07:56.303Z,77395.72
2022-12-08T05:10:23.830Z,77413.97
2022-12-08T05:12:50.748Z,77411.94
2022-12-08T05:15:18.068Z,77426.13
2022-12-08T05:17:44.870Z,77529.53
2022-12-08T05:20:12.314Z,77442.34
2022-12-08T05:22:39.137Z,77448.44
2022-12-08T05:25:06.490Z,77452.50
2022-12-08T05:27:33.361Z,77458.56
2022-12-08T05:30:00.434Z,77464.66
2022-12-08T05:32:27.322Z,77466.69
2022-12-08T05:34:54.445Z,77468.72
2022-12-08T05:37:21.339Z,77462.63
2022-12-08T05:39:48.476Z,77468.72
2022-12-08T05:42:18.353Z,77468.72
2022-12-08T05:44:48.939Z,77464.66
2022-12-08T05:47:15.753Z,77460.59
2022-12-08T05:49:42.887Z,77468.72
2022-12-08T05:52:10.003Z,77484.94
2022-12-08T05:54:37.360Z,77484.94
2022-12-08T05:57:04.176Z,77484.94
2022-12-08T05:59:31.304Z,77478.84
2022-12-08T06:01:58.280Z,77468.72
2022-12-08T06:04:25.551Z,77468.72
2022-12-08T06:06:52.479Z,77464.66
2022-12-08T06:09:19.579Z,77460.59
2022-12-08T06:11:47.319Z,77452.50
2022-12-08T06:14:14.617Z,77448.44
2022-12-08T06:16:41.559Z,77440.31
2022-12-08T06:19:08.768Z,77456.53
2022-12-08T06:21:35.632Z,77450.47
2022-12-08T06:24:02.849Z,77448.44
2022-12-08T06:26:29.770Z,77452.50
2022-12-08T06:28:56.893Z,77440.31
2022-12-08T06:31:25.860Z,77448.44
2022-12-08T06:33:54.821Z,77432.22
2022-12-08T06:36:25.254Z,77432.22
2022-12-08T06:38:52.819Z,77436.28
2022-12-08T06:41:19.821Z,77430.19
2022-12-08T06:43:47.209Z,77432.22
2022-12-08T06:46:17.635Z,77436.28
2022-12-08T06:48:45.472Z,77428.16
2022-12-08T06:51:17.865Z,77432.22
2022-12-08T06:53:46.644Z,77448.44
2022-12-08T06:56:15.930Z,77452.50
2022-12-08T06:58:46.169Z,77462.63
2022-12-08T07:01:17.540Z,77474.78
2022-12-08T07:03:44.787Z,77480.88
2022-12-08T07:06:24.020Z,77484.94
2022-12-08T07:08:51.374Z,77493.03
2022-12-08T07:11:21.863Z,77493.03
2022-12-08T07:13:49.899Z,77493.03
2022-12-08T07:16:16.852Z,77476.81
2022-12-08T07:18:44.224Z,77480.88
2022-12-08T07:21:13.319Z,77493.03
2022-12-08T07:23:41.776Z,77489.00
2022-12-08T07:26:11.337Z,77493.03
2022-12-08T07:28:40.677Z,77491.03
2022-12-08T07:31:15.998Z,77501.16
2022-12-08T07:33:43.318Z,77499.13
2022-12-08T07:36:10.453Z,77499.13
2022-12-08T07:38:37.673Z,77497.09
2022-12-08T07:41:04.818Z,77499.13
2022-12-08T07:43:31.987Z,77505.22
2022-12-08T07:45:58.973Z,77505.22
2022-12-08T07:48:26.144Z,77505.22
2022-12-08T07:51:00.450Z,77505.22
2022-12-08T07:53:27.583Z,77505.22
2022-12-08T07:55:54.449Z,77505.22
2022-12-08T07:58:21.619Z,77501.16
2022-12-08T08:00:48.527Z,77495.06
2022-12-08T08:03:16.000Z,77495.06
2022-12-08T08:05:44.158Z,77493.03
2022-12-08T08:08:11.499Z,77493.03
2022-12-08T08:10:38.379Z,77497.09
2022-12-08T08:13:05.637Z,77493.03
2022-12-08T08:15:32.544Z,77489.00
2022-12-08T08:17:59.899Z,77484.94
2022-12-08T08:20:27.095Z,77476.81
2022-12-08T08:22:54.298Z,77474.78
2022-12-08T08:25:24.695Z,77472.78
2022-12-08T08:27:52.128Z,77468.72
2022-12-08T08:30:20.983Z,77476.81
2022-12-08T08:32:49.544Z,77511.28
2022-12-08T08:35:16.813Z,77480.88
2022-12-08T08:37:48.562Z,77480.88
2022-12-08T08:40:17.379Z,77484.94
2022-12-08T08:42:44.544Z,77472.78
2022-12-08T08:45:11.636Z,77468.72
2022-12-08T08:47:38.904Z,77470.75
2022-12-08T08:50:06.821Z,77468.72
2022-12-08T08:52:34.136Z,77460.59
2022-12-08T08:55:00.972Z,77440.31
2022-12-08T08:57:28.179Z,77428.16
2022-12-08T08:59:55.265Z,77416.00
2022-12-08T09:02:22.846Z,77416.00
2022-12-08T09:04:50.074Z,77407.88
2022-12-08T09:07:17.355Z,77391.66
2022-12-08T09:09:44.238Z,77383.56
2022-12-08T09:12:12.132Z,77371.38
2022-12-08T09:14:39.202Z,77361.25
2022-12-08T09:17:07.207Z,77359.22
2022-12-08T09:19:34.958Z,77359.22
2022-12-08T09:22:02.119Z,77351.13
2022-12-08T09:24:29.020Z,77343.00
2022-12-08T09:26:56.173Z,77334.91
2022-12-08T09:29:23.019Z,77326.78
2022-12-08T09:31:50.194Z,77314.63
2022-12-08T09:34:17.158Z,77306.50
2022-12-08T09:36:44.270Z,77302.44
2022-12-08T09:39:11.150Z,77294.34
2022-12-08T09:41:48.270Z,77282.19
2022-12-08T09:44:38.773Z,77274.06
2022-12-08T09:47:29.491Z,77265.97
2022-12-08T09:50:11.290Z,77261.91
2022-12-08T09:52:44.172Z,77265.97
2022-12-08T09:55:24.563Z,77253.78
2022-12-08T09:58:00.547Z,77235.53
2022-12-08T10:00:27.789Z,77221.34
2022-12-08T10:02:57.353Z,77213.25
2022-12-08T10:05:26.289Z,77209.19
2022-12-08T10:08:06.255Z,77201.06
2022-12-08T10:10:42.120Z,77205.13
2022-12-08T10:13:35.438Z,77209.19
2022-12-08T10:16:29.699Z,77209.19
2022-12-08T10:19:23.258Z,77201.06
2022-12-08T10:21:53.110Z,77207.16
2022-12-08T10:24:26.085Z,77201.06
2022-12-08T10:26:55.314Z,77197.03
2022-12-08T10:29:22.318Z,77195.00
2022-12-08T10:31:49.652Z,77197.03
2022-12-08T10:34:20.447Z,77195.00
2022-12-08T10:36:56.345Z,77188.91
2022-12-08T10:39:46.875Z,77195.00
2022-12-08T10:42:14.251Z,77180.81
2022-12-08T10:45:02.906Z,77172.69
2022-12-08T10:47:35.315Z,77168.63
2022-12-08T10:50:19.578Z,77164.59
2022-12-08T10:52:55.161Z,77148.38
2022-12-08T10:55:23.409Z,77128.09
2022-12-08T10:57:50.649Z,77111.88
2022-12-08T11:00:24.575Z,77103.75
2022-12-08T11:02:53.400Z,77111.88
2022-12-08T11:05:22.878Z,77124.03
2022-12-08T11:07:52.777Z,77119.97
2022-12-08T11:10:27.084Z,77107.81
2022-12-08T11:12:55.302Z,77115.94
2022-12-08T11:15:22.123Z,77083.50
2022-12-08T11:18:00.959Z,77069.28
2022-12-08T11:20:27.976Z,77071.31
2022-12-08T11:22:56.607Z,77065.25
2022-12-08T11:25:25.709Z,77059.16
2022-12-08T11:28:01.813Z,77059.16
2022-12-08T11:30:37.738Z,77059.16
2022-12-08T11:33:19.454Z,77071.31
2022-12-08T11:35:51.838Z,77055.09
2022-12-08T11:38:22.771Z,77038.88
2022-12-08T11:41:16.906Z,77026.72
2022-12-08T11:44:06.933Z,77022.66
2022-12-08T11:46:46.375Z,77010.50
2022-12-08T11:49:14.687Z,77014.56
2022-12-08T11:51:53.368Z,77014.56
2022-12-08T11:54:35.140Z,77044.97
2022-12-08T11:57:05.801Z,77083.50
2022-12-08T11:59:38.390Z,77087.53
2022-12-08T12:02:11.490Z,77095.66
2022-12-08T12:05:02.803Z,77107.81
2022-12-08T12:07:58.693Z,77126.06
2022-12-08T12:10:31.893Z,77140.25
2022-12-08T12:13:20.282Z,77148.38
2022-12-08T12:16:05.528Z,77140.25
2022-12-08T12:18:45.187Z,77134.16
2022-12-08T12:21:28.136Z,77130.13
2022-12-08T12:24:00.537Z,77128.09
2022-12-08T12:26:37.201Z,77128.09
2022-12-08T12:29:09.093Z,77128.09
2022-12-08T12:31:41.653Z,77128.09
2022-12-08T12:34:16.934Z,77119.97
2022-12-08T12:37:03.304Z,77111.88
2022-12-08T12:39:34.208Z,77103.75
2022-12-08T12:42:04.664Z,77115.94
2022-12-08T12:44:34.500Z,77111.88
2022-12-08T12:47:04.339Z,77119.97
2022-12-08T12:49:40.459Z,77117.94
2022-12-08T12:52:10.326Z,77115.94
2022-12-08T12:54:42.678Z,77113.91
2022-12-08T12:57:09.863Z,77103.75
2022-12-08T12:59:45.502Z,77095.66
2022-12-08T13:02:36.083Z,77089.56
2022-12-08T13:05:22.747Z,77083.50
2022-12-08T13:08:01.059Z,77077.41
2022-12-08T13:10:37.427Z,77075.38
2022-12-08T13:13:24.953Z,77083.50
2022-12-08T13:15:55.216Z,77087.53
2022-12-08T13:18:46.456Z,77091.59
2022-12-08T13:21:16.063Z,77093.63
2022-12-08T13:23:48.982Z,77091.59
2022-12-08T13:26:23.672Z,77091.59
2022-12-08T13:29:01.246Z,77091.59
2022-12-08T13:31:48.318Z,77091.59
2022-12-08T13:34:20.323Z,77091.59
2022-12-08T13:37:11.689Z,77095.66
2022-12-08T13:39:38.852Z,77097.69
2022-12-08T13:42:33.760Z,77087.53
2022-12-08T13:45:33.965Z,77099.72
2022-12-08T13:48:26.983Z,77103.75
2022-12-08T13:57:26.536Z,77119.97
2022-12-08T13:59:53.440Z,77124.03
2022-12-08T14:02:30.178Z,77130.13
2022-12-08T14:07:46.423Z,77132.16
2022-12-08T14:10:19.595Z,77136.19
2022-12-08T14:12:52.273Z,77140.25
2022-12-08T14:15:19.480Z,77136.19
2022-12-08T14:17:54.970Z,77140.25
2022-12-08T14:20:30.362Z,77154.44
2022-12-08T14:22:59.661Z,77156.47
2022-12-08T14:25:30.143Z,77156.47
2022-12-08T14:28:03.133Z,77156.47
2022-12-08T14:30:34.710Z,77160.53
2022-12-08T14:33:04.397Z,77162.56
2022-12-08T14:35:37.057Z,77164.59
2022-12-08T14:38:14.970Z,77158.50
2022-12-08T14:40:53.834Z,77156.47
2022-12-08T14:43:27.054Z,77160.53
2022-12-08T14:45:58.265Z,77148.38
2022-12-08T14:48:27.028Z,77148.38
2022-12-08T14:51:03.206Z,77156.47
2022-12-08T14:53:38.197Z,77148.38
2022-12-08T14:56:18.013Z,77152.41
2022-12-08T14:58:45.668Z,77156.47
2022-12-08T15:01:17.024Z,77156.47
2022-12-08T15:03:50.379Z,77154.44
2022-12-08T15:06:20.896Z,77152.41
2022-12-08T15:08:58.847Z,77156.47
2022-12-08T15:11:34.968Z,77160.53
2022-12-08T15:14:03.051Z,77156.47
2022-12-08T15:16:43.478Z,77156.47
2022-12-08T15:19:24.451Z,77164.59
2022-12-08T15:21:51.402Z,77152.41
2022-12-08T15:24:19.880Z,77152.41
2022-12-08T15:26:49.941Z,77152.41
2022-12-08T15:29:29.511Z,77160.53
2022-12-08T15:32:01.612Z,77156.47
2022-12-08T15:34:31.639Z,77154.44
2022-12-08T15:36:58.538Z,77152.41
2022-12-08T15:39:34.868Z,77150.41
2022-12-08T15:42:03.188Z,77148.38
2022-12-08T15:44:32.809Z,77152.41
2022-12-08T15:47:00.799Z,77156.47
2022-12-08T15:49:28.109Z,77168.63
2022-12-08T15:52:04.941Z,77164.59
2022-12-08T15:54:37.698Z,77164.59
2022-12-08T15:57:19.459Z,77168.63
2022-12-08T15:59:50.410Z,77176.75
2022-12-08T16:02:22.353Z,77176.75
2022-12-08T16:07:38.264Z,77182.84
2022-12-08T16:10:08.012Z,77178.78
2022-12-08T16:15:59.127Z,77176.75
2022-12-08T16:18:29.982Z,77162.56
2022-12-08T16:21:31.597Z,77164.59
2022-12-08T16:23:45.477Z,77164.59
2022-12-08T16:26:28.359Z,77168.63
2022-12-08T16:28:55.792Z,77164.59
2022-12-08T16:31:23.527Z,77158.50
2022-12-08T16:33:50.471Z,77146.34
2022-12-08T16:36:17.962Z,77140.25
2022-12-08T16:38:44.901Z,77140.25
2022-12-08T16:41:35.132Z,77138.22
2022-12-08T16:44:03.889Z,77132.16
2022-12-08T16:46:31.681Z,77119.97
2022-12-08T16:48:59.135Z,77119.97
2022-12-08T16:51:27.545Z,77119.97
2022-12-08T16:53:57.158Z,77119.97
2022-12-08T16:56:30.631Z,77122.00
2022-12-08T16:58:59.949Z,77124.03
2022-12-08T17:01:27.824Z,77111.88
2022-12-08T17:06:42.682Z,77107.81
2022-12-08T17:09:09.728Z,77111.88
2022-12-08T17:11:42.933Z,77107.81
2022-12-08T17:14:13.092Z,77107.81
2022-12-08T17:16:41.475Z,77101.72
2022-12-08T17:19:08.983Z,77095.66
2022-12-08T17:21:36.944Z,77091.59
2022-12-08T17:24:04.853Z,77087.53
2022-12-08T17:26:32.080Z,77091.59
2022-12-08T17:29:00.959Z,77091.59
2022-12-08T17:31:31.236Z,77083.50
2022-12-08T17:34:03.057Z,77083.50
2022-12-08T17:36:31.213Z,77087.53
2022-12-08T17:38:59.837Z,77087.53
2022-12-08T17:41:27.178Z,77083.50
2022-12-08T17:43:54.133Z,77083.50
2022-12-08T17:46:22.899Z,77087.53
2022-12-08T17:48:50.227Z,77083.50
2022-12-08T17:51:17.544Z,77083.50
2022-12-08T17:53:44.629Z,77083.50
2022-12-08T17:56:21.390Z,77085.50
2022-12-08T17:58:54.214Z,77087.53
2022-12-08T18:01:41.037Z,77087.53
2022-12-08T18:04:09.969Z,77091.59
2022-12-08T18:06:38.129Z,77087.53
2022-12-08T18:09:07.854Z,77091.59
2022-12-08T18:11:35.690Z,77095.66
2022-12-08T18:14:10.148Z,77091.59
2022-12-08T18:16:39.874Z,77093.63
2022-12-08T18:19:07.867Z,77103.75
2022-12-08T18:21:35.705Z,77103.75
2022-12-08T18:24:04.234Z,77099.72
2022-12-08T18:26:31.183Z,77101.72
2022-12-08T18:28:58.565Z,77093.63
2022-12-08T18:31:25.789Z,77091.59
2022-12-08T18:33:53.196Z,77087.53
2022-12-08T18:36:23.993Z,77091.59
2022-12-08T18:38:52.483Z,77087.53
2022-12-08T18:41:26.249Z,77095.66
2022-12-08T18:43:55.279Z,77095.66
2022-12-08T18:46:22.420Z,77095.66
2022-12-08T18:48:51.402Z,77103.75
2022-12-08T18:51:21.264Z,77107.81
2022-12-08T18:53:49.207Z,77107.81
2022-12-08T18:56:28.482Z,77119.97
2022-12-08T18:59:02.795Z,77126.06
2022-12-08T19:01:32.115Z,77128.09
2022-12-08T19:06:47.470Z,77140.25
2022-12-08T19:09:15.923Z,77152.41
2022-12-08T19:11:43.255Z,77154.44
2022-12-08T19:14:11.535Z,77164.59
2022-12-08T19:16:38.466Z,77168.63
2022-12-08T19:19:06.192Z,77184.84
2022-12-08T19:21:33.254Z,77188.91
2022-12-08T19:24:00.486Z,77197.03
2022-12-08T19:26:28.289Z,77209.19
2022-12-08T19:28:56.230Z,77213.25
2022-12-08T19:31:23.173Z,77221.34
2022-12-08T19:33:50.518Z,77227.44
2022-12-08T19:36:20.922Z,77233.53
2022-12-08T19:39:06.887Z,77233.53
2022-12-08T19:41:52.332Z,77233.53
2022-12-08T19:44:34.068Z,77235.53
2022-12-08T19:47:01.615Z,77241.63
2022-12-08T19:49:28.951Z,77249.75
2022-12-08T19:51:56.219Z,77243.66
2022-12-08T19:54:24.111Z,77245.69
2022-12-08T19:56:51.443Z,77249.75
2022-12-08T19:59:19.291Z,77253.78
2022-12-08T20:01:48.459Z,77257.84
2022-12-08T20:04:16.610Z,77257.84
2022-12-08T20:06:44.527Z,77257.84
2022-12-08T20:09:12.962Z,77265.97
2022-12-08T20:11:40.755Z,77265.97
2022-12-08T20:14:08.414Z,77278.13
2022-12-08T20:16:35.717Z,77278.13
2022-12-08T20:19:02.985Z,77278.13
2022-12-08T20:21:30.095Z,77282.19
2022-12-08T20:23:57.314Z,77286.22
2022-12-08T20:26:24.222Z,77290.28
2022-12-08T20:28:51.628Z,77286.22
2022-12-08T20:31:20.319Z,77302.44
2022-12-08T20:33:47.926Z,77302.44
2022-12-08T20:36:18.746Z,77306.50
2022-12-08T20:38:47.929Z,77310.56
2022-12-08T20:41:16.179Z,77306.50
2022-12-08T20:43:44.614Z,77302.44
2022-12-08T20:46:14.313Z,77310.56
2022-12-08T20:48:42.313Z,77304.47
2022-12-08T20:51:12.813Z,77318.66
2022-12-08T20:53:40.010Z,77318.66
2022-12-08T20:56:07.417Z,77326.78
2022-12-08T20:58:34.739Z,77320.69
2022-12-08T21:01:01.862Z,77314.63
2022-12-08T21:03:29.210Z,77314.63
2022-12-08T21:05:56.815Z,77322.72
2022-12-08T21:08:26.059Z,77306.50
2022-12-08T21:10:54.500Z,77310.56
2022-12-08T21:13:21.840Z,77310.56
2022-12-08T21:15:49.040Z,77314.63
2022-12-08T21:18:17.025Z,77322.72
2022-12-08T21:20:44.210Z,77322.72
2022-12-08T21:23:12.048Z,77322.72
2022-12-08T21:25:43.655Z,77322.72
2022-12-08T21:28:11.473Z,77322.72
2022-12-08T21:30:40.204Z,77326.78
2022-12-08T21:33:07.708Z,77328.81
2022-12-08T21:35:34.881Z,77332.88
2022-12-08T21:38:02.190Z,77322.72
2022-12-08T21:40:29.068Z,77334.91
2022-12-08T21:42:56.416Z,77330.84
2022-12-08T21:45:23.344Z,77332.88
2022-12-08T21:47:50.741Z,77340.97
2022-12-08T21:50:18.532Z,77334.91
2022-12-08T21:52:47.925Z,77334.91
2022-12-08T21:55:16.430Z,77338.94
2022-12-08T21:58:02.282Z,77343.00
2022-12-08T22:00:29.852Z,77336.91
2022-12-08T22:02:58.072Z,77343.00
2022-12-08T22:05:25.510Z,77338.94
2022-12-08T22:07:52.373Z,77343.00
2022-12-08T22:10:21.130Z,77343.00
2022-12-08T22:12:48.347Z,77338.94
2022-12-08T22:15:15.800Z,77347.06
2022-12-08T22:17:43.936Z,77343.00
2022-12-08T22:20:13.692Z,77355.16
2022-12-08T22:22:41.350Z,77359.22
2022-12-08T22:25:12.611Z,77363.28
2022-12-08T22:27:41.046Z,77355.16
2022-12-08T22:30:09.605Z,77359.22
2022-12-08T22:32:37.186Z,77359.22
2022-12-08T22:35:04.631Z,77363.28
2022-12-08T22:37:31.630Z,77361.25
2022-12-08T22:39:58.914Z,77363.28
2022-12-08T22:42:26.609Z,77363.28
2022-12-08T22:44:53.831Z,77367.34
2022-12-08T22:47:20.805Z,77369.38
2022-12-08T22:49:48.474Z,77371.38
2022-12-08T22:52:15.384Z,77373.41
2022-12-08T22:54:42.518Z,77369.38
2022-12-08T22:57:09.424Z,77375.44
2022-12-08T22:59:54.994Z,77371.38
2022-12-08T23:02:22.077Z,77371.38
2022-12-08T23:04:49.020Z,77371.38
2022-12-08T23:07:16.572Z,77379.50
2022-12-08T23:09:43.587Z,77381.53
2022-12-08T23:12:10.673Z,77383.56
2022-12-08T23:14:37.524Z,77391.66
2022-12-08T23:17:04.935Z,77391.66
2022-12-08T23:19:31.969Z,77391.66
2022-12-08T23:21:59.222Z,77395.72
2022-12-08T23:24:26.036Z,77399.78
2022-12-08T23:26:53.156Z,77399.78
2022-12-08T23:29:20.254Z,77403.84
2022-12-08T23:31:47.709Z,77399.78
2022-12-08T23:34:14.850Z,77399.78
2022-12-08T23:36:42.133Z,77399.78
2022-12-08T23:39:11.032Z,77411.94
2022-12-08T23:41:38.303Z,77407.88
2022-12-08T23:44:05.317Z,77403.84
2022-12-08T23:46:32.757Z,77405.84
2022-12-08T23:48:59.823Z,77409.91
2022-12-08T23:51:27.567Z,77413.97
2022-12-08T23:53:54.730Z,77411.94
2022-12-08T23:56:24.363Z,77411.94
2022-12-08T23:58:53.943Z,77416.00
